createdAt,value
2023-03-31T00:01:30.661Z,99948.78
2023-03-31T00:04:33.755Z,99937.84
2023-03-31T00:07:38.196Z,99950.69
2023-03-31T00:10:46.705Z,99944.00
2023-03-31T00:13:49.279Z,99934.25
2023-03-31T00:16:51.900Z,99941.03
2023-03-31T00:20:00.507Z,99934.56
2023-03-31T00:23:03.108Z,99938.88
2023-03-31T00:26:06.349Z,99939.03
2023-03-31T00:29:11.990Z,99944.31
2023-03-31T00:32:14.822Z,99936.81
2023-03-31T00:35:17.498Z,99933.00
2023-03-31T00:38:22.064Z,99930.78
2023-03-31T00:41:26.831Z,99924.34
2023-03-31T00:44:31.083Z,99928.84
2023-03-31T00:47:34.909Z,99922.19
2023-03-31T00:50:44.341Z,99928.91
2023-03-31T00:53:55.506Z,99931.94
2023-03-31T00:56:58.790Z,99926.22
2023-03-31T01:00:31.119Z,99923.75
2023-03-31T01:03:34.506Z,99914.34
2023-03-31T01:06:51.401Z,99922.72
2023-03-31T01:09:59.424Z,99913.81
2023-03-31T01:13:03.849Z,99910.72
2023-03-31T01:16:06.829Z,99911.44
2023-03-31T01:19:22.082Z,99901.25
2023-03-31T01:22:46.057Z,99908.78
2023-03-31T01:26:20.881Z,99903.06
2023-03-31T01:30:08.211Z,99908.53
2023-03-31T01:33:16.803Z,99913.56
2023-03-31T01:36:35.060Z,99909.38
2023-03-31T01:40:22.336Z,99914.00
2023-03-31T01:43:54.150Z,99907.00
2023-03-31T01:47:22.946Z,99905.47
2023-03-31T01:50:39.478Z,99898.78
2023-03-31T01:54:03.246Z,99908.16
2023-03-31T01:57:12.481Z,99901.84
2023-03-31T02:00:19.934Z,99903.53
2023-03-31T02:03:35.378Z,99912.63
2023-03-31T02:06:43.237Z,99910.50
2023-03-31T02:09:53.706Z,99915.13
2023-03-31T02:12:58.594Z,99913.56
2023-03-31T02:16:05.764Z,99908.53
2023-03-31T02:19:10.733Z,99908.69
2023-03-31T02:22:16.119Z,99908.78
2023-03-31T02:25:23.902Z,99907.38
2023-03-31T02:28:30.350Z,99908.94
2023-03-31T02:31:48.178Z,99907.56
2023-03-31T02:34:50.913Z,99912.41
2023-03-31T02:37:53.935Z,99903.75
2023-03-31T02:40:56.732Z,99903.06
2023-03-31T02:44:01.749Z,99902.66
2023-03-31T02:47:05.686Z,99892.22
2023-03-31T02:50:09.996Z,99887.22
2023-03-31T02:53:49.554Z,99888.75
2023-03-31T02:56:58.181Z,99889.84
2023-03-31T03:00:14.224Z,99883.19
2023-03-31T03:03:38.810Z,99872.00
2023-03-31T03:06:53.655Z,99871.84
2023-03-31T03:10:09.435Z,99878.13
2023-03-31T03:13:14.892Z,99880.66
2023-03-31T03:16:35.480Z,99880.66
2023-03-31T03:19:38.126Z,99870.88
2023-03-31T03:22:41.776Z,99883.44
2023-03-31T03:25:45.084Z,99875.63
2023-03-31T03:28:49.142Z,99869.06
2023-03-31T03:31:51.860Z,99875.34
2023-03-31T03:34:54.411Z,99870.59
2023-03-31T03:37:57.375Z,99883.31
2023-03-31T03:41:00.001Z,99877.59
2023-03-31T03:44:03.060Z,99873.81
2023-03-31T03:47:06.093Z,99872.31
2023-03-31T03:50:09.743Z,99877.47
2023-03-31T03:53:13.237Z,99875.63
2023-03-31T03:56:16.102Z,99866.44
2023-03-31T03:59:18.727Z,99877.03
2023-03-31T04:02:21.472Z,99872.00
2023-03-31T04:05:24.530Z,99882.91
2023-03-31T04:08:27.383Z,99875.75
2023-03-31T04:11:31.489Z,99877.59
2023-03-31T04:14:34.144Z,99867.41
2023-03-31T04:17:37.925Z,99867.41
2023-03-31T04:20:40.525Z,99877.97
2023-03-31T04:23:46.881Z,99862.81
2023-03-31T04:26:51.078Z,99866.94
2023-03-31T04:29:57.074Z,99877.81
2023-03-31T04:33:04.249Z,99865.25
2023-03-31T04:36:18.091Z,99867.50
2023-03-31T04:39:27.136Z,99863.91
2023-03-31T04:42:29.773Z,99861.66
2023-03-31T04:45:33.992Z,99848.28
2023-03-31T04:48:37.361Z,99848.28
2023-03-31T04:51:40.427Z,99856.09
2023-03-31T04:54:43.027Z,99858.63
2023-03-31T04:57:45.662Z,99856.69
2023-03-31T05:00:48.253Z,99845.94
2023-03-31T05:03:51.372Z,99845.50
2023-03-31T05:06:54.250Z,99841.88
2023-03-31T05:09:56.908Z,99848.84
2023-03-31T05:12:59.437Z,99835.88
2023-03-31T05:16:10.038Z,99837.69
2023-03-31T05:19:13.113Z,99836.03
2023-03-31T05:22:20.564Z,99833.38
2023-03-31T05:25:23.810Z,99833.19
2023-03-31T05:28:27.015Z,99828.88
2023-03-31T05:31:29.719Z,99827.59
2023-03-31T05:34:32.308Z,99830.06
2023-03-31T05:37:34.908Z,99833.94
2023-03-31T05:40:38.868Z,99821.34
2023-03-31T05:43:43.343Z,99835.66
2023-03-31T05:46:46.240Z,99822.28
2023-03-31T05:49:53.266Z,99824.16
2023-03-31T05:52:56.400Z,99819.03
2023-03-31T05:56:04.097Z,99799.06
2023-03-31T05:59:07.147Z,99807.03
2023-03-31T06:02:13.681Z,99814.78
2023-03-31T06:05:16.263Z,99817.34
2023-03-31T06:08:19.571Z,99812.31
2023-03-31T06:11:24.353Z,99798.03
2023-03-31T06:14:28.218Z,99811.09
2023-03-31T06:17:30.810Z,99807.16
2023-03-31T06:20:33.377Z,99809.94
2023-03-31T06:23:35.991Z,99806.44
2023-03-31T06:26:38.549Z,99811.97
2023-03-31T06:29:41.233Z,99816.28
2023-03-31T06:32:43.929Z,99812.94
2023-03-31T06:35:46.601Z,99813.84
2023-03-31T06:38:51.248Z,99816.84
2023-03-31T06:41:54.232Z,99815.72
2023-03-31T06:45:02.636Z,99808.06
2023-03-31T06:48:06.800Z,99811.19
2023-03-31T06:51:10.361Z,99805.91
2023-03-31T06:54:12.997Z,99799.44
2023-03-31T06:57:15.700Z,99796.59
2023-03-31T07:00:21.516Z,99801.97
2023-03-31T07:03:25.866Z,99799.66
2023-03-31T07:06:28.500Z,99802.41
2023-03-31T07:09:31.104Z,99814.44
2023-03-31T07:12:34.144Z,99812.44
2023-03-31T07:15:38.368Z,99817.13
2023-03-31T07:18:42.217Z,99816.31
2023-03-31T07:21:45.841Z,99811.47
2023-03-31T07:24:49.039Z,99804.13
2023-03-31T07:27:51.764Z,99797.97
2023-03-31T07:30:55.012Z,99793.28
2023-03-31T07:33:58.654Z,99785.81
2023-03-31T07:37:01.387Z,99789.47
2023-03-31T07:40:06.022Z,99778.47
2023-03-31T07:43:08.976Z,99783.97
2023-03-31T07:46:23.883Z,99780.78
2023-03-31T07:49:26.541Z,99768.13
2023-03-31T07:52:29.151Z,99761.28
2023-03-31T07:55:31.701Z,99762.41
2023-03-31T07:58:36.470Z,99765.38
2023-03-31T08:01:39.137Z,99762.03
2023-03-31T08:04:43.083Z,99751.31
2023-03-31T08:07:49.233Z,99758.28
2023-03-31T08:10:52.147Z,99760.19
2023-03-31T08:13:54.894Z,99744.63
2023-03-31T08:16:58.081Z,99744.91
2023-03-31T08:20:04.427Z,99737.81
2023-03-31T08:23:11.610Z,99737.00
2023-03-31T08:26:19.923Z,99726.31
2023-03-31T08:29:23.358Z,99721.28
2023-03-31T08:32:25.962Z,99721.97
2023-03-31T08:35:28.538Z,99716.97
2023-03-31T08:38:31.464Z,99706.03
2023-03-31T08:41:52.397Z,99693.00
2023-03-31T08:45:03.717Z,99690.84
2023-03-31T08:48:20.567Z,99688.75
2023-03-31T08:51:32.459Z,99674.97
2023-03-31T08:54:41.018Z,99673.06
2023-03-31T08:57:52.932Z,99671.06
2023-03-31T09:01:02.101Z,99650.56
2023-03-31T09:04:16.862Z,99636.31
2023-03-31T09:07:35.562Z,99634.25
2023-03-31T09:10:56.611Z,99634.81
2023-03-31T09:14:08.109Z,99621.97
2023-03-31T09:17:24.251Z,99614.41
2023-03-31T09:20:41.131Z,99616.22
2023-03-31T09:23:46.848Z,99613.38
2023-03-31T09:26:57.080Z,99607.91
2023-03-31T09:30:26.155Z,99601.88
2023-03-31T09:33:34.029Z,99601.41
2023-03-31T09:36:36.732Z,99600.03
2023-03-31T09:39:42.829Z,99593.56
2023-03-31T09:42:54.416Z,99586.63
2023-03-31T09:46:09.349Z,99588.91
2023-03-31T09:49:17.154Z,99569.28
2023-03-31T09:52:32.991Z,99570.19
2023-03-31T09:55:57.031Z,99574.84
2023-03-31T09:59:03.916Z,99565.94
2023-03-31T10:02:42.159Z,99556.75
2023-03-31T10:05:58.957Z,99557.00
2023-03-31T10:09:05.385Z,99558.25
2023-03-31T10:12:16.301Z,99557.41
2023-03-31T10:15:22.140Z,99570.00
2023-03-31T10:18:34.657Z,99573.28
2023-03-31T10:21:38.795Z,99548.13
2023-03-31T10:24:46.293Z,99538.59
2023-03-31T10:27:53.452Z,99549.25
2023-03-31T10:31:01.488Z,99565.91
2023-03-31T10:34:08.214Z,99557.13
2023-03-31T10:37:18.681Z,99546.84
2023-03-31T10:40:27.477Z,99502.53
2023-03-31T10:43:41.620Z,99502.81
2023-03-31T10:46:52.514Z,99511.47
2023-03-31T10:49:57.885Z,99489.72
2023-03-31T10:53:14.054Z,99513.16
2023-03-31T10:56:28.892Z,99489.38
2023-03-31T10:59:43.536Z,99485.06
2023-03-31T11:03:12.076Z,99488.94
2023-03-31T11:06:36.727Z,99466.81
2023-03-31T11:09:45.391Z,99451.56
2023-03-31T11:13:16.220Z,99455.22
2023-03-31T11:16:27.848Z,99456.63
2023-03-31T11:19:43.503Z,99465.31
2023-03-31T11:23:37.806Z,99461.75
2023-03-31T11:27:17.251Z,99439.09
2023-03-31T11:30:35.649Z,99441.44
2023-03-31T11:33:58.560Z,99423.59
2023-03-31T11:37:17.223Z,99411.47
2023-03-31T11:40:41.487Z,99393.44
2023-03-31T11:43:54.375Z,99390.78
2023-03-31T11:47:01.840Z,99378.75
2023-03-31T11:50:12.453Z,99386.09
2023-03-31T11:53:21.159Z,99369.91
2023-03-31T11:56:30.513Z,99354.84
2023-03-31T11:59:34.910Z,99342.84
2023-03-31T12:03:11.707Z,99354.34
2023-03-31T12:06:20.216Z,99355.06
2023-03-31T12:09:30.595Z,99346.13
2023-03-31T12:12:39.980Z,99340.66
2023-03-31T12:16:01.256Z,99331.97
2023-03-31T12:19:16.257Z,99334.25
2023-03-31T12:22:24.973Z,99332.72
2023-03-31T12:25:39.824Z,99324.53
2023-03-31T12:28:44.673Z,99310.13
2023-03-31T12:31:49.153Z,99314.06
2023-03-31T12:34:58.758Z,99316.94
2023-03-31T12:38:27.799Z,99302.50
2023-03-31T12:41:36.247Z,99301.91
2023-03-31T12:45:00.111Z,99284.31
2023-03-31T12:48:05.832Z,99275.88
2023-03-31T12:51:31.536Z,99262.75
2023-03-31T12:55:00.414Z,99255.59
2023-03-31T12:58:33.103Z,99255.22
2023-03-31T13:02:15.202Z,99252.69
2023-03-31T13:05:36.905Z,99244.63
2023-03-31T13:08:52.567Z,99249.66
2023-03-31T13:11:55.392Z,99254.38
2023-03-31T13:15:00.497Z,99248.91
2023-03-31T13:18:05.670Z,99234.03
2023-03-31T13:21:09.642Z,99218.38
2023-03-31T13:24:12.977Z,99221.00
2023-03-31T13:27:35.755Z,99215.44
2023-03-31T13:30:43.974Z,99214.19
2023-03-31T13:34:02.064Z,99209.34
2023-03-31T13:37:08.314Z,99201.44
2023-03-31T13:40:17.053Z,99182.22
2023-03-31T13:43:51.649Z,99201.31
2023-03-31T13:47:15.725Z,99168.88
2023-03-31T13:50:46.216Z,99161.25
2023-03-31T13:54:26.410Z,99153.81
2023-03-31T13:57:58.292Z,99158.72
2023-03-31T14:01:16.533Z,99154.94
2023-03-31T14:04:57.947Z,99151.88
2023-03-31T14:08:14.772Z,99144.13
2023-03-31T14:11:29.679Z,99144.59
2023-03-31T14:14:32.299Z,99149.28
2023-03-31T14:17:40.875Z,99132.63
2023-03-31T14:21:03.382Z,99133.38
2023-03-31T14:24:25.019Z,99106.72
2023-03-31T14:27:39.207Z,99097.25
2023-03-31T14:30:52.877Z,99071.75
2023-03-31T14:34:12.225Z,99060.41
2023-03-31T14:37:17.957Z,99047.66
2023-03-31T14:40:20.875Z,99064.19
2023-03-31T14:43:35.886Z,99055.97
2023-03-31T14:46:39.730Z,99047.84
2023-03-31T14:49:43.192Z,99052.94
2023-03-31T14:52:52.633Z,99057.88
2023-03-31T14:56:03.270Z,99054.97
2023-03-31T14:59:08.218Z,99048.56
2023-03-31T15:02:19.672Z,99057.81
2023-03-31T15:05:31.570Z,99052.03
2023-03-31T15:08:37.484Z,99049.56
2023-03-31T15:11:40.167Z,99050.22
2023-03-31T15:14:58.859Z,99047.81
2023-03-31T15:18:02.126Z,99049.75
2023-03-31T15:21:05.303Z,99052.72
2023-03-31T15:24:08.176Z,99036.16
2023-03-31T15:27:23.449Z,99042.03
2023-03-31T15:30:32.931Z,99041.78
2023-03-31T15:33:41.508Z,99049.88
2023-03-31T15:36:45.190Z,99028.69
2023-03-31T15:39:48.703Z,99040.22
2023-03-31T15:43:06.943Z,99005.16
2023-03-31T15:46:24.522Z,99001.47
2023-03-31T15:49:28.393Z,99009.09
2023-03-31T15:52:35.065Z,98992.59
2023-03-31T15:58:47.617Z,98996.50
2023-03-31T16:01:51.237Z,98998.97
2023-03-31T16:04:59.905Z,99000.41
2023-03-31T16:08:03.935Z,98986.97
2023-03-31T16:11:14.294Z,98994.41
2023-03-31T16:14:22.000Z,98986.69
2023-03-31T16:17:33.979Z,98995.91
2023-03-31T16:20:40.994Z,98978.94
2023-03-31T16:23:45.502Z,98966.09
2023-03-31T16:26:49.079Z,98979.22
2023-03-31T16:30:26.874Z,98972.56
2023-03-31T16:33:31.914Z,98989.75
2023-03-31T16:36:35.232Z,98986.22
2023-03-31T16:39:37.868Z,98998.88
2023-03-31T16:42:40.745Z,99002.34
2023-03-31T16:45:48.696Z,99010.50
2023-03-31T16:48:53.039Z,99020.81
2023-03-31T16:51:55.752Z,99033.53
2023-03-31T16:54:58.624Z,99024.50
2023-03-31T16:58:03.469Z,99011.97
2023-03-31T17:01:07.474Z,99003.06
2023-03-31T17:04:10.250Z,99024.38
2023-03-31T17:07:13.264Z,99006.63
2023-03-31T17:10:17.188Z,99034.97
2023-03-31T17:13:24.582Z,99036.97
2023-03-31T17:16:36.432Z,99037.78
2023-03-31T17:19:53.137Z,99039.41
2023-03-31T17:22:55.726Z,99043.88
2023-03-31T17:25:59.456Z,99041.78
2023-03-31T17:29:02.943Z,99040.84
2023-03-31T17:32:07.059Z,99030.50
2023-03-31T17:35:11.731Z,99032.16
2023-03-31T17:38:15.118Z,99043.22
2023-03-31T17:41:19.987Z,99032.66
2023-03-31T17:44:23.188Z,99025.00
2023-03-31T17:47:26.452Z,99025.97
2023-03-31T17:50:29.555Z,99030.88
2023-03-31T17:53:32.834Z,99018.75
2023-03-31T17:56:35.850Z,99038.34
2023-03-31T17:59:39.008Z,99038.00
2023-03-31T18:02:43.658Z,99041.97
2023-03-31T18:05:46.557Z,99043.13
2023-03-31T18:08:49.660Z,99037.19
2023-03-31T18:11:54.015Z,99039.66
2023-03-31T18:14:57.192Z,99027.94
2023-03-31T18:18:01.070Z,99041.09
2023-03-31T18:21:09.743Z,99030.44
2023-03-31T18:24:14.198Z,99019.66
2023-03-31T18:27:17.528Z,99034.56
2023-03-31T18:30:21.954Z,99030.81
2023-03-31T18:33:25.778Z,99020.97
2023-03-31T18:36:29.907Z,99037.56
2023-03-31T18:39:33.491Z,99037.94
2023-03-31T18:42:37.075Z,99039.28
2023-03-31T18:45:40.279Z,99042.81
2023-03-31T18:48:44.663Z,99026.69
2023-03-31T18:51:48.617Z,99031.22
2023-03-31T18:54:56.377Z,99024.63
2023-03-31T18:58:01.132Z,99023.50
2023-03-31T19:01:05.441Z,99039.63
2023-03-31T19:04:09.866Z,99035.94
2023-03-31T19:07:14.932Z,99037.88
2023-03-31T19:10:21.057Z,99046.31
2023-03-31T19:13:25.001Z,99054.31
2023-03-31T19:16:29.154Z,99057.84
2023-03-31T19:19:32.886Z,99040.16
2023-03-31T19:22:37.965Z,99059.84
2023-03-31T19:25:41.246Z,99043.31
2023-03-31T19:28:44.972Z,99053.13
2023-03-31T19:31:49.781Z,99047.97
2023-03-31T19:34:55.182Z,99051.00
2023-03-31T19:37:59.132Z,99039.72
2023-03-31T19:41:04.585Z,99046.78
2023-03-31T19:44:07.845Z,99043.25
2023-03-31T19:47:12.335Z,99036.53
2023-03-31T19:50:15.857Z,99034.28
2023-03-31T19:53:20.507Z,99034.03
2023-03-31T19:56:26.212Z,99041.41
2023-03-31T19:59:29.518Z,99041.19
2023-03-31T20:02:33.947Z,99033.88
2023-03-31T20:05:37.547Z,99035.66
2023-03-31T20:08:44.185Z,99036.41
2023-03-31T20:11:52.358Z,99037.16
2023-03-31T20:14:56.399Z,99024.38
2023-03-31T20:18:00.746Z,99023.97
2023-03-31T20:21:09.853Z,99022.47
2023-03-31T20:24:19.205Z,99028.50
2023-03-31T20:27:26.758Z,99019.34
2023-03-31T20:30:30.060Z,99017.41
2023-03-31T20:33:34.132Z,99011.63
2023-03-31T20:36:37.546Z,99014.81
2023-03-31T20:39:46.918Z,99019.13
2023-03-31T20:42:50.364Z,99002.63
2023-03-31T20:46:02.958Z,98999.31
2023-03-31T20:49:07.670Z,98994.66
2023-03-31T20:52:10.908Z,98986.84
2023-03-31T20:55:13.906Z,98984.53
2023-03-31T20:58:21.780Z,98979.91
2023-03-31T21:01:29.743Z,98976.63
2023-03-31T21:04:32.389Z,98972.94
2023-03-31T21:07:34.952Z,98972.59
2023-03-31T21:10:45.752Z,98972.88
2023-03-31T21:13:48.906Z,98973.31
2023-03-31T21:16:51.475Z,98974.72
2023-03-31T21:19:54.210Z,98973.22
2023-03-31T21:23:00.011Z,98968.09
2023-03-31T21:26:04.347Z,98956.16
2023-03-31T21:29:07.078Z,98950.31
2023-03-31T21:32:09.819Z,98951.47
2023-03-31T21:35:12.473Z,98945.19
2023-03-31T21:38:15.692Z,98947.75
2023-03-31T21:41:24.450Z,98944.16
2023-03-31T21:44:28.608Z,98946.75
2023-03-31T21:47:31.366Z,98946.81
2023-03-31T21:50:34.883Z,98951.88
2023-03-31T21:53:37.709Z,98954.91
2023-03-31T21:56:40.253Z,98953.78
2023-03-31T21:59:43.239Z,98958.91
2023-03-31T22:02:46.229Z,98953.31
2023-03-31T22:05:49.011Z,98963.19
2023-03-31T22:08:52.388Z,98955.03
2023-03-31T22:11:55.132Z,98965.34
2023-03-31T22:14:57.828Z,98962.19
2023-03-31T22:18:01.544Z,98968.50
2023-03-31T22:21:13.934Z,98966.38
2023-03-31T22:24:16.788Z,98945.66
2023-03-31T22:27:19.395Z,98951.97
2023-03-31T22:30:23.420Z,98949.66
2023-03-31T22:33:25.986Z,98956.63
2023-03-31T22:36:28.551Z,98942.66
2023-03-31T22:39:31.735Z,98934.09
2023-03-31T22:42:34.690Z,98945.72
2023-03-31T22:45:40.312Z,98955.31
2023-03-31T22:48:44.125Z,98950.00
2023-03-31T22:51:49.243Z,98947.03
2023-03-31T22:54:52.230Z,98957.72
2023-03-31T22:57:55.133Z,98948.41
2023-03-31T23:00:58.920Z,98942.78
2023-03-31T23:04:02.488Z,98948.44
2023-03-31T23:07:07.361Z,98937.16
2023-03-31T23:10:11.390Z,98933.56
2023-03-31T23:13:13.940Z,98932.59
2023-03-31T23:16:23.586Z,98932.44
2023-03-31T23:19:26.485Z,98926.31
2023-03-31T23:22:29.066Z,98926.03
2023-03-31T23:25:33.276Z,98930.19
2023-03-31T23:28:38.046Z,98920.38
2023-03-31T23:31:41.222Z,98909.91
2023-03-31T23:34:44.147Z,98928.66
2023-03-31T23:37:46.916Z,98937.94
2023-03-31T23:40:49.594Z,98926.34
2023-03-31T23:43:52.862Z,98936.00
2023-03-31T23:46:55.698Z,98936.00
2023-03-31T23:49:58.701Z,98957.16
2023-03-31T23:53:02.215Z,98945.22
2023-03-31T23:56:08.724Z,98944.91
2023-03-31T23:59:11.413Z,98947.41
